Wood, South Dakota
Current Conditions -  °F | °C
As of 3:53 AM on Wednesday 22 Oct 2014 (Local Time) from KICR Reporting Station
Clear Clear  
Wind Chill: 64°   Ceiling: Unl
Heat Index: 64°   Visibility: 10mi
Dew Point: 53°   Wind: 23mph
Humidity: 67%   Direction: 190°S
Pressure: 29.81"   Gusts: NA
Location:  43.5°N, 100.48°W
Report Text: KICR 220953Z AUTO 19020KT 10SM CLR 18/12 A2981 RMK AO2 PK WND 19026/0912 SLP080 T01780117
Loading
Personal Weather Stations






























Interactive Weather Map
Tropical Storm Tracking
New forecast layout! Learn more

10-Day Weather Forecast

Advertisements
Track Severe Weather on mobile